Mayo, Canada
Current Conditions -  °F | °C
As of 11:00 AM on Thursday 27 Nov 2014 (Local Time) from CYMA Reporting Station
Light Snow Light Snow  
Wind Chill: -30°   Ceiling: 1200
Heat Index: -23°   Visibility: 20mi
Dew Point: -26°   Wind: 6mph
Humidity: 77%   Direction: 350°N
Pressure: 30.48"   Gusts: NA
Location:  63.6°N, 135.88°W
Report Text: CYMA 271900Z 35005KT 20SM -SN FEW005 OVC012 M23/M26 A3048 RMK ST1SC7 SLP390
Loading
Personal Weather Stations






























Interactive Weather Map New forecast layout! Learn more

10-Day Weather Forecast

Advertisements
Track Severe Weather on mobile